Andesborg — PCLC — position and weather

sailwx.info

Track history (hours):
 
Tides and Currents Weather Stations Pressure Air Temp Water Temp Dewpoint Dewpoint Depression Visibility Wind Speed Wind Dir Waves Ship Positions

Andesborg

Last reported at 2018-Apr-23 00:39 UTC. Time now 2018-Apr-23 02:05 UTC.
Position N 31°43' E 121°08'.

Length 142 m; draft 6.5 m.

Type: Ship. MMSI: 246797000.

Date/timePositionNaut miles runAvg speedWind from/ knotsBaromVisibWave heightAir tempDewpointWater temp
2018-Apr-23 00:39N 31°43' E 121°08'0 0.4
2018-Apr-23 00:08N 31°43' E 121°08'0 0.5
2018-Apr-22 23:56N 31°43' E 121°08'0 0.1
2018-Apr-22 23:29N 31°43' E 121°08'0 0.1
2018-Apr-22 22:59N 31°43' E 121°08'0 0.0
2018-Apr-22 22:11N 31°43' E 121°08'0 0.0
2018-Apr-22 21:53N 31°43' E 121°08'0 0.0
2018-Apr-22 21:17N 31°43' E 121°08'0 0.0
2018-Apr-22 20:53N 31°43' E 121°08'0 0.1
2018-Apr-22 20:29N 31°43' E 121°08'0 0.1
2018-Apr-22 19:59N 31°43' E 121°08'0 0.3
2018-Apr-22 19:29N 31°43' E 121°09'0 0.0
2018-Apr-22 18:41N 31°43' E 121°09'0 0.1
2018-Apr-22 18:11N 31°43' E 121°09'0 0.1
2018-Apr-22 16:50N 31°43' E 121°08'0 0.6
2018-Apr-22 16:29N 31°43' E 121°09'0 0.0
2018-Apr-22 15:59N 31°43' E 121°09'0 0.2
2018-Apr-22 15:27N 31°43' E 121°09'0 0.1
2018-Apr-22 14:55N 31°43' E 121°09'0 0.0
2018-Apr-22 14:19N 31°43' E 121°09'0 0.1
2018-Apr-22 13:56N 31°43' E 121°09'0 0.1
2018-Apr-22 13:18N 31°43' E 121°09'0 0.1
2018-Apr-22 12:57N 31°43' E 121°09'0 0.0
2018-Apr-22 12:05N 31°43' E 121°09'0 1.0
2018-Apr-22 11:55N 31°43' E 121°08'0 0.3
2018-Apr-22 11:23N 31°43' E 121°09'0 0.0
2018-Apr-22 10:52N 31°43' E 121°09'0 0.3
2018-Apr-22 10:22N 31°43' E 121°08'0 0.0
2018-Apr-22 09:05N 31°43' E 121°08'0 0.0
2018-Apr-22 08:48N 31°43' E 121°08'0 0.3
2018-Apr-22 08:23N 31°43' E 121°08'0 0.1
2018-Apr-22 08:00N 31°43' E 121°09'0 0.1
2018-Apr-22 07:29N 31°43' E 121°09'0 0.0
2018-Apr-22 06:59N 31°43' E 121°09'0 0.0
2018-Apr-22 06:29N 31°43' E 121°09'0 0.2
2018-Apr-22 06:00N 31°43' E 121°09'0 0.0
2018-Apr-22 05:18N 31°43' E 121°09'0 0.0
2018-Apr-22 04:57N 31°43' E 121°09'0 0.0
2018-Apr-22 04:27N 31°43' E 121°09'0 0.0
2018-Apr-22 02:56N 31°43' E 121°09'0 0.0
2018-Apr-22 02:27N 31°43' E 121°09'0 0.0
2018-Apr-22 01:57N 31°43' E 121°09'0 0.0
2018-Apr-22 01:30N 31°43' E 121°09'0 0.1
2018-Apr-22 00:45N 31°43' E 121°09'0 0.1
2018-Apr-21 23:43N 31°43' E 121°08'0 0.4
2018-Apr-21 23:21N 31°43' E 121°08'0 0.0
2018-Apr-21 22:49N 31°43' E 121°08'0 0.7
2018-Apr-21 22:30N 31°43' E 121°08'0 0.4
2018-Apr-21 21:51N 31°43' E 121°08'0 0.0
2018-Apr-21 21:27N 31°43' E 121°08'0 0.1
2018-Apr-21 20:57N 31°43' E 121°08'0 0.4
2018-Apr-21 20:28N 31°43' E 121°09'0 0.2
2018-Apr-21 19:45N 31°43' E 121°08'0 0.0
2018-Apr-21 19:21N 31°43' E 121°08'0 0.0
2018-Apr-21 18:57N 31°43' E 121°08'611.7
2018-Apr-21 18:24N 31°39' E 121°14'615.4
2018-Apr-21 18:00N 31°43' E 121°09'0 0.0
2018-Apr-21 17:29N 31°43' E 121°09'0 0.0
2018-Apr-21 16:54N 31°43' E 121°09'0 0.0
2018-Apr-21 14:38N 31°43' E 121°09'0 0.0
2018-Apr-21 14:26N 31°43' E 121°09'0 0.0
2018-Apr-21 13:55N 31°43' E 121°09'0 0.2
2018-Apr-21 13:22N 31°43' E 121°08'0 0.2
2018-Apr-21 13:01N 31°43' E 121°08'4 7.5
2018-Apr-21 12:30N 31°40' E 121°12'5 9.2
2018-Apr-21 12:00N 31°37' E 121°16'510.5
2018-Apr-21 11:31N 31°33' E 121°20'611.3
2018-Apr-21 11:00N 31°30' E 121°25'610.4
2018-Apr-21 10:28N 31°26' E 121°30'27 9.3
2018-Apr-21 07:34N 31°09' E 121°54'115.2
2018-Apr-21 07:30N 31°08' E 121°55'612.3
2018-Apr-21 07:00N 31°05' E 122°01'612.0
2018-Apr-21 06:30N 31°03' E 122°08'611.5
2018-Apr-21 05:59N 31°03' E 122°15'510.0
2018-Apr-21 05:30N 31°02' E 122°20'14 0.7
2018-Apr-20 10:18N 31°02' E 122°37'0 0.0
2018-Apr-19 15:18N 31°02' E 122°37'0 0.0
2018-Apr-19 14:54N 31°02' E 122°37'0 0.1
2018-Apr-19 12:54N 31°02' E 122°37'0 0.0
2018-Apr-19 12:30N 31°02' E 122°37'0 0.1
2018-Apr-19 12:00N 31°02' E 122°37'8 0.2
2018-Apr-17 15:50N 31°06' E 122°46'411.6
2018-Apr-17 15:30N 31°07' E 122°50'510.8
2018-Apr-17 15:00N 31°12' E 122°51'910.9
2018-Apr-17 14:08N 31°22' E 122°51'211.0
2018-Apr-17 13:59N 31°24' E 122°51'1312.1
2018-Apr-17 12:57N 31°34' E 122°59'  
2018-Apr-13 07:55N 35°02' E 129°14'  
Track history (hours):
 
Tides and Currents Weather Stations Pressure Air Temp Water Temp Dewpoint Dewpoint Depression Visibility Wind Speed Wind Dir Waves Ship Positions

Andesborg

Last reported at 2018-Apr-23 00:39 UTC. Time now 2018-Apr-23 02:05 UTC.
Position N 31°43' E 121°08'.

Length 142 m; draft 6.5 m.

Type: Ship. MMSI: 246797000.

Date/timePositionNaut miles runAvg speedWind from/ knotsBaromVisibWave heightAir tempDewpointWater temp
2018-Apr-23 00:39N 31°43' E 121°08'0 0.4
2018-Apr-23 00:08N 31°43' E 121°08'0 0.5
2018-Apr-22 23:56N 31°43' E 121°08'0 0.1
2018-Apr-22 23:29N 31°43' E 121°08'0 0.1
2018-Apr-22 22:59N 31°43' E 121°08'0 0.0
2018-Apr-22 22:11N 31°43' E 121°08'0 0.0
2018-Apr-22 21:53N 31°43' E 121°08'0 0.0
2018-Apr-22 21:17N 31°43' E 121°08'0 0.0
2018-Apr-22 20:53N 31°43' E 121°08'0 0.1
2018-Apr-22 20:29N 31°43' E 121°08'0 0.1
2018-Apr-22 19:59N 31°43' E 121°08'0 0.3
2018-Apr-22 19:29N 31°43' E 121°09'0 0.0
2018-Apr-22 18:41N 31°43' E 121°09'0 0.1
2018-Apr-22 18:11N 31°43' E 121°09'0 0.1
2018-Apr-22 16:50N 31°43' E 121°08'0 0.6
2018-Apr-22 16:29N 31°43' E 121°09'0 0.0
2018-Apr-22 15:59N 31°43' E 121°09'0 0.2
2018-Apr-22 15:27N 31°43' E 121°09'0 0.1
2018-Apr-22 14:55N 31°43' E 121°09'0 0.0
2018-Apr-22 14:19N 31°43' E 121°09'0 0.1
2018-Apr-22 13:56N 31°43' E 121°09'0 0.1
2018-Apr-22 13:18N 31°43' E 121°09'0 0.1
2018-Apr-22 12:57N 31°43' E 121°09'0 0.0
2018-Apr-22 12:05N 31°43' E 121°09'0 1.0
2018-Apr-22 11:55N 31°43' E 121°08'0 0.3
2018-Apr-22 11:23N 31°43' E 121°09'0 0.0
2018-Apr-22 10:52N 31°43' E 121°09'0 0.3
2018-Apr-22 10:22N 31°43' E 121°08'0 0.0
2018-Apr-22 09:05N 31°43' E 121°08'0 0.0
2018-Apr-22 08:48N 31°43' E 121°08'0 0.3
2018-Apr-22 08:23N 31°43' E 121°08'0 0.1
2018-Apr-22 08:00N 31°43' E 121°09'0 0.1
2018-Apr-22 07:29N 31°43' E 121°09'0 0.0
2018-Apr-22 06:59N 31°43' E 121°09'0 0.0
2018-Apr-22 06:29N 31°43' E 121°09'0 0.2
2018-Apr-22 06:00N 31°43' E 121°09'0 0.0
2018-Apr-22 05:18N 31°43' E 121°09'0 0.0
2018-Apr-22 04:57N 31°43' E 121°09'0 0.0
2018-Apr-22 04:27N 31°43' E 121°09'0 0.0
2018-Apr-22 02:56N 31°43' E 121°09'0 0.0
2018-Apr-22 02:27N 31°43' E 121°09'0 0.0
2018-Apr-22 01:57N 31°43' E 121°09'0 0.0
2018-Apr-22 01:30N 31°43' E 121°09'0 0.1
2018-Apr-22 00:45N 31°43' E 121°09'0 0.1
2018-Apr-21 23:43N 31°43' E 121°08'0 0.4
2018-Apr-21 23:21N 31°43' E 121°08'0 0.0
2018-Apr-21 22:49N 31°43' E 121°08'0 0.7
2018-Apr-21 22:30N 31°43' E 121°08'0 0.4
2018-Apr-21 21:51N 31°43' E 121°08'0 0.0
2018-Apr-21 21:27N 31°43' E 121°08'0 0.1
2018-Apr-21 20:57N 31°43' E 121°08'0 0.4
2018-Apr-21 20:28N 31°43' E 121°09'0 0.2
2018-Apr-21 19:45N 31°43' E 121°08'0 0.0
2018-Apr-21 19:21N 31°43' E 121°08'0 0.0
2018-Apr-21 18:57N 31°43' E 121°08'611.7
2018-Apr-21 18:24N 31°39' E 121°14'615.4
2018-Apr-21 18:00N 31°43' E 121°09'0 0.0
2018-Apr-21 17:29N 31°43' E 121°09'0 0.0
2018-Apr-21 16:54N 31°43' E 121°09'0 0.0
2018-Apr-21 14:38N 31°43' E 121°09'0 0.0
2018-Apr-21 14:26N 31°43' E 121°09'0 0.0
2018-Apr-21 13:55N 31°43' E 121°09'0 0.2
2018-Apr-21 13:22N 31°43' E 121°08'0 0.2
2018-Apr-21 13:01N 31°43' E 121°08'4 7.5
2018-Apr-21 12:30N 31°40' E 121°12'5 9.2
2018-Apr-21 12:00N 31°37' E 121°16'510.5
2018-Apr-21 11:31N 31°33' E 121°20'611.3
2018-Apr-21 11:00N 31°30' E 121°25'610.4
2018-Apr-21 10:28N 31°26' E 121°30'27 9.3
2018-Apr-21 07:34N 31°09' E 121°54'115.2
2018-Apr-21 07:30N 31°08' E 121°55'612.3
2018-Apr-21 07:00N 31°05' E 122°01'612.0
2018-Apr-21 06:30N 31°03' E 122°08'611.5
2018-Apr-21 05:59N 31°03' E 122°15'510.0
2018-Apr-21 05:30N 31°02' E 122°20'14 0.7
2018-Apr-20 10:18N 31°02' E 122°37'0 0.0
2018-Apr-19 15:18N 31°02' E 122°37'0 0.0
2018-Apr-19 14:54N 31°02' E 122°37'0 0.1
2018-Apr-19 12:54N 31°02' E 122°37'0 0.0
2018-Apr-19 12:30N 31°02' E 122°37'0 0.1
2018-Apr-19 12:00N 31°02' E 122°37'8 0.2
2018-Apr-17 15:50N 31°06' E 122°46'411.6
2018-Apr-17 15:30N 31°07' E 122°50'510.8
2018-Apr-17 15:00N 31°12' E 122°51'910.9
2018-Apr-17 14:08N 31°22' E 122°51'211.0
2018-Apr-17 13:59N 31°24' E 122°51'1312.1
2018-Apr-17 12:57N 31°34' E 122°59'  
2018-Apr-13 07:55N 35°02' E 129°14'  

Dump ship's entire track history